Time;durP1;ratioP1;P1;durP2;ratioP2;P2;SDS_P1;SDS_P2;PMS_P1;PMS_P2;Temp;Humidity;BMP_temperature;BMP_pressure;BME280_temperature;BME280_humidity;BME280_pressure;Samples;Min_cycle;Max_cycle;Signal;HPM_P1;HPM_P2
2021/07/03 00:03:50;;;;;;;;;;;16.00;99.90;;;14.87;73.00;95898.44;10425536;28;2226;-84
2021/07/03 00:08:53;;;;;;;;;;;16.00;99.90;;;14.78;73.05;95892.13;10424863;28;1814;-83
2021/07/03 00:13:56;;;;;;;;;;;16.00;99.90;;;14.87;73.54;95898.44;10446309;28;1909;-83
2021/07/03 00:18:58;;;;;;;;;;;16.00;99.90;;;14.91;73.53;95894.06;10440832;28;2177;-80
2021/07/03 00:24:01;;;;;;;;;;;15.90;99.90;;;14.90;73.97;95889.75;10431045;28;2192;-80
2021/07/03 00:29:04;;;;;;;;;;;15.90;99.90;;;14.91;74.00;95887.84;10420436;28;2039;-82
2021/07/03 00:34:06;;;;;;;;;;;16.00;99.90;;;14.87;74.03;95879.50;10421208;28;2126;-84
2021/07/03 00:39:09;;;;;;;;;;;15.90;99.90;;;14.72;75.34;95868.97;10420329;28;2067;-83
2021/07/03 00:44:12;;;;;;;;;;;15.80;99.90;;;14.58;76.14;95866.22;10415566;28;2112;-82
2021/07/03 00:49:15;;;;;;;;;;;15.70;99.90;;;14.49;76.62;95860.66;10404525;28;2191;-82
2021/07/03 00:54:21;;;;;;;;;;;15.70;99.90;;;14.44;77.09;95862.63;10412626;28;2190;-83
2021/07/03 00:59:23;;;;;;;;;;;15.60;99.90;;;14.37;78.40;95864.91;10406924;28;1816;-83
2021/07/03 01:04:26;;;;;;;;;;;15.50;99.90;;;14.29;78.65;95863.69;10418969;28;2156;-81
2021/07/03 01:09:29;;;;;;;;;;;15.50;99.90;;;14.13;80.05;95870.44;10409121;28;2265;-81
2021/07/03 01:14:32;;;;;;;;;;;15.30;99.90;;;14.00;80.50;95880.88;10423749;28;1624;-84
2021/07/03 01:19:35;;;;;;;;;;;15.20;99.90;;;14.02;80.55;95884.09;10416831;28;2090;-84
2021/07/03 01:24:38;;;;;;;;;;;15.10;99.90;;;14.22;80.22;95877.56;10416631;28;2083;-83
2021/07/03 01:29:40;;;;;;;;;;;15.20;99.90;;;14.33;79.94;95881.72;10416278;28;2115;-82
2021/07/03 01:34:43;;;;;;;;;;;15.20;99.90;;;14.33;79.80;95873.63;10411585;28;2172;-83
2021/07/03 01:39:46;;;;;;;;;;;15.30;99.90;;;14.17;79.88;95868.72;10399631;28;1737;-83
2021/07/03 01:44:49;;;;;;;;;;;15.30;99.90;;;13.91;81.56;95879.13;10401171;28;1910;-84
2021/07/03 01:49:52;;;;;;;;;;;15.10;99.90;;;13.64;82.27;95872.47;10404102;28;2035;-83
2021/07/03 01:54:55;;;;;;;;;;;14.90;99.90;;;13.45;83.55;95877.81;10412042;28;1969;-82
2021/07/03 01:59:57;;;;;;;;;;;14.70;99.90;;;13.30;84.73;95869.91;10409580;28;2015;-83
2021/07/03 02:05:00;;;;;;;;;;;14.60;99.90;;;13.19;85.09;95873.78;10406473;28;2027;-83
2021/07/03 02:10:03;;;;;;;;;;;14.40;99.90;;;13.06;86.44;95871.78;10400783;28;2011;-81
2021/07/03 02:15:06;;;;;;;;;;;14.40;99.90;;;12.99;86.96;95862.13;10408138;28;1984;-81
2021/07/03 02:20:09;;;;;;;;;;;14.30;99.90;;;12.90;86.22;95858.44;10411944;28;2058;-81
2021/07/03 02:25:12;;;;;;;;;;;14.20;99.90;;;12.86;86.81;95862.00;10389199;28;1983;-83
2021/07/03 02:30:14;;;;;;;;;;;14.10;99.90;;;12.82;86.88;95861.75;10387764;28;2016;-83
2021/07/03 02:35:17;;;;;;;;;;;14.10;99.90;;;12.79;85.64;95865.06;10425047;28;2056;-81
2021/07/03 02:40:20;;;;;;;;;;;14.00;99.90;;;12.73;86.07;95868.88;10412845;28;2139;-82
2021/07/03 02:45:23;;;;;;;;;;;14.00;99.90;;;12.67;86.00;95864.63;10415561;28;2106;-84
2021/07/03 02:50:26;;;;;;;;;;;13.90;99.90;;;12.64;86.74;95871.38;10401068;28;2015;-84
2021/07/03 02:55:28;;;;;;;;;;;13.90;99.90;;;12.66;86.75;95877.31;10418197;28;2026;-83
2021/07/03 03:00:31;;;;;;;;;;;13.80;99.90;;;12.63;85.50;95871.66;10417804;28;2082;-82
2021/07/03 03:05:34;;;;;;;;;;;13.80;99.90;;;12.57;86.25;95870.91;10407388;28;2295;-83
2021/07/03 03:10:37;;;;;;;;;;;13.80;99.90;;;12.54;86.95;95884.16;10420178;28;2039;-83
2021/07/03 03:15:40;;;;;;;;;;;13.80;99.90;;;12.49;87.19;95885.00;10425443;28;2107;-80
2021/07/03 03:20:42;;;;;;;;;;;13.70;99.90;;;12.46;87.83;95877.47;10425592;28;2221;-84
2021/07/03 03:25:45;;;;;;;;;;;13.70;99.90;;;12.47;87.16;95889.06;10446734;28;1941;-83
2021/07/03 03:30:48;;;;;;;;;;;13.70;99.90;;;12.51;87.86;95887.41;10423867;28;1830;-81
2021/07/03 03:35:51;;;;;;;;;;;13.70;99.90;;;12.60;88.04;95886.53;10412650;28;2114;-82
2021/07/03 03:40:54;;;;;;;;;;;13.70;99.90;;;12.77;88.47;95886.09;10404032;28;2038;-83
2021/07/03 03:45:57;;;;;;;;;;;13.80;99.90;;;13.01;86.66;95885.31;10416435;28;2002;-83
2021/07/03 03:51:00;;;;;;;;;;;13.90;99.90;;;13.34;84.34;95889.84;10427865;28;1932;-83
2021/07/03 03:56:03;;;;;;;;;;;14.10;99.90;;;13.73;83.17;95888.81;10421235;28;1492;-83
2021/07/03 04:01:05;;;;;;;;;;;14.40;99.90;;;14.39;80.49;95881.66;10433677;28;2079;-84
2021/07/03 04:06:08;;;;;;;;;;;14.80;99.90;;;14.66;78.42;95887.19;10430880;28;2195;-81
2021/07/03 04:11:11;;;;;;;;;;;15.30;99.90;;;15.05;76.89;95883.25;10419484;28;2186;-83
2021/07/03 04:16:18;;;;;;;;;;;15.60;99.90;;;15.42;75.24;95871.44;10415052;28;1859;-83
2021/07/03 04:21:36;;;;;;;;;;;15.90;99.90;;;15.72;73.73;95880.06;10422872;28;2067;-83
2021/07/03 04:26:38;;;;;;;;;;;16.30;99.90;;;16.28;70.91;95882.31;10442810;28;1958;-83
2021/07/03 04:31:41;;;;;;;;;;;16.60;99.90;;;16.62;68.83;95876.38;10420952;28;2138;-80
2021/07/03 04:36:44;;;;;;;;;;;16.90;99.90;;;16.99;68.03;95887.97;10431348;28;2125;-82
2021/07/03 04:41:47;;;;;;;;;;;17.30;99.90;;;17.32;66.76;95891.16;10410422;28;2102;-82
2021/07/03 04:46:50;;;;;;;;;;;17.70;99.90;;;17.73;64.38;95882.66;10406518;28;1974;-81
2021/07/03 04:51:52;;;;;;;;;;;18.00;99.90;;;17.35;65.88;95881.56;10413045;28;1841;-82
2021/07/03 04:57:06;;;;;;;;;;;18.00;99.90;;;16.86;67.66;95864.38;10417265;28;1603;-83
2021/07/03 05:02:09;;;;;;;;;;;17.80;99.90;;;16.71;68.30;95860.94;10392439;28;1594;-83
2021/07/03 05:07:12;;;;;;;;;;;17.60;99.90;;;16.70;67.86;95863.97;10421350;28;1910;-84
2021/07/03 05:12:15;;;;;;;;;;;17.60;99.90;;;16.88;68.21;95851.31;10424186;28;1996;-82
2021/07/03 05:17:18;;;;;;;;;;;17.60;99.90;;;17.04;66.98;95860.66;10428978;28;1921;-80
2021/07/03 05:22:20;;;;;;;;;;;17.80;99.90;;;17.22;66.65;95856.91;10428507;28;2102;-81
2021/07/03 05:27:23;;;;;;;;;;;17.90;99.90;;;17.34;66.41;95859.03;10413438;28;1942;-81
2021/07/03 05:32:26;;;;;;;;;;;18.00;99.90;;;17.62;65.46;95865.00;10414236;28;1937;-81
2021/07/03 05:37:29;;;;;;;;;;;18.20;99.90;;;17.86;64.03;95861.91;10432555;28;1830;-81
2021/07/03 05:42:31;;;;;;;;;;;18.50;99.90;;;18.70;61.23;95865.28;10411068;28;1865;-80
2021/07/03 05:47:34;;;;;;;;;;;18.90;99.90;;;18.96;60.28;95862.50;10431165;28;1959;-81
2021/07/03 05:52:37;;;;;;;;;;;19.40;99.90;;;19.38;58.42;95869.72;10415094;28;2124;-82
2021/07/03 05:57:41;;;;;;;;;;;19.80;99.90;;;19.74;56.96;95870.41;10416619;28;2095;-81
2021/07/03 06:02:48;;;;;;;;;;;20.10;99.90;;;19.80;56.35;95871.81;10411325;28;1949;-83
2021/07/03 06:07:51;;;;;;;;;;;20.20;99.90;;;19.75;55.84;95864.59;10413853;28;2016;-82
2021/07/03 06:12:54;;;;;;;;;;;20.50;99.90;;;20.30;55.17;95866.34;10399051;28;2020;-82
2021/07/03 06:17:57;;;;;;;;;;;20.70;99.90;;;20.07;54.96;95868.56;10414378;28;1972;-79
2021/07/03 06:23:00;;;;;;;;;;;20.70;99.90;;;20.65;53.27;95860.59;10413138;28;1944;-81
2021/07/03 06:28:02;;;;;;;;;;;20.90;99.90;;;20.31;53.99;95848.81;10423074;28;1920;-83
2021/07/03 06:33:05;;;;;;;;;;;21.10;99.90;;;20.51;53.98;95848.03;10419030;28;2053;-80
2021/07/03 06:38:09;;;;;;;;;;;21.20;99.90;;;21.01;51.93;95841.56;10449570;28;1873;-80
2021/07/03 06:43:11;;;;;;;;;;;21.40;99.90;;;20.80;51.75;95840.81;10411074;28;2120;-81
2021/07/03 06:48:15;;;;;;;;;;;21.60;99.90;;;21.28;50.91;95842.06;10436625;28;2211;-82
2021/07/03 06:53:18;;;;;;;;;;;21.60;99.90;;;20.90;49.46;95834.94;10415859;28;2044;-82
2021/07/03 06:58:20;;;;;;;;;;;21.80;99.90;;;21.22;47.38;95835.22;10435522;28;2100;-84
2021/07/03 07:03:23;;;;;;;;;;;21.90;99.90;;;21.36;48.52;95832.97;10434392;28;2038;-84
2021/07/03 07:08:27;;;;;;;;;;;21.90;99.90;;;21.70;48.26;95833.69;10400368;28;2070;-84
2021/07/03 07:13:30;;;;;;;;;;;22.10;99.90;;;22.18;46.50;95842.97;10425022;28;2152;-83
2021/07/03 07:18:33;;;;;;;;;;;22.50;99.90;;;22.06;47.41;95824.59;10457203;28;2257;-83
2021/07/03 07:23:36;;;;;;;;;;;22.60;99.90;;;21.99;43.92;95827.91;10417327;28;2230;-83
2021/07/03 07:28:39;;;;;;;;;;;22.70;99.90;;;21.54;45.48;95820.69;10447079;28;2003;-81
2021/07/03 07:33:42;;;;;;;;;;;22.60;99.90;;;22.13;44.72;95820.16;10440037;28;2043;-83
2021/07/03 07:38:44;;;;;;;;;;;22.60;99.90;;;22.83;43.25;95813.47;10425245;28;2105;-84
2021/07/03 07:43:47;;;;;;;;;;;23.00;99.90;;;22.59;42.55;95815.22;10448570;28;1998;-82
2021/07/03 07:48:50;;;;;;;;;;;23.10;99.90;;;22.19;42.50;95796.06;10450529;28;2169;-84
2021/07/03 07:53:53;;;;;;;;;;;23.00;99.90;;;22.27;43.48;95791.63;10409534;28;2397;-83
2021/07/03 07:58:56;;;;;;;;;;;23.00;99.90;;;23.00;41.49;95782.25;10426857;28;2164;-84
2021/07/03 08:03:58;;;;;;;;;;;23.20;99.90;;;22.68;43.19;95787.66;10428166;28;2080;-84
2021/07/03 08:09:01;;;;;;;;;;;23.50;99.90;;;22.65;44.61;95794.63;10428117;28;2222;-84
2021/07/03 08:14:04;;;;;;;;;;;23.40;99.90;;;22.67;42.37;95789.59;10412317;28;2143;-84
2021/07/03 08:19:07;;;;;;;;;;;23.50;99.90;;;22.96;43.74;95782.13;10431690;28;2006;-84
2021/07/03 08:24:10;;;;;;;;;;;23.50;99.90;;;23.12;43.90;95782.16;10415176;28;2088;-81
2021/07/03 08:29:12;;;;;;;;;;;23.60;99.90;;;22.25;43.17;95780.19;10426788;28;2113;-82
2021/07/03 08:34:16;;;;;;;;;;;23.60;99.90;;;22.09;43.91;95764.53;10410389;28;2075;-84
2021/07/03 08:39:19;;;;;;;;;;;23.20;99.90;;;22.72;43.67;95766.63;10449772;28;2228;-84
2021/07/03 08:44:22;;;;;;;;;;;23.20;99.90;;;23.17;41.83;95759.97;10447935;28;2125;-83
2021/07/03 08:49:25;;;;;;;;;;;23.70;99.90;;;23.60;41.06;95748.06;10422126;28;2062;-83
2021/07/03 08:54:30;;;;;;;;;;;24.00;99.90;;;23.93;38.59;95742.13;10422049;28;2130;-84
2021/07/03 08:59:33;;;;;;;;;;;24.40;99.10;;;23.22;42.03;95753.38;10431981;28;2003;-84
2021/07/03 09:04:35;;;;;;;;;;;24.10;99.90;;;22.70;43.65;95749.72;10411970;28;2287;-83
2021/07/03 09:09:38;;;;;;;;;;;23.80;99.90;;;22.98;42.90;95752.44;10439443;28;1997;-83
2021/07/03 09:14:41;;;;;;;;;;;23.60;99.90;;;22.32;43.84;95736.59;10427688;28;2064;-82
2021/07/03 09:19:45;;;;;;;;;;;23.50;99.90;;;23.29;43.10;95742.63;10425704;28;2119;-83
2021/07/03 09:24:47;;;;;;;;;;;23.60;99.90;;;23.45;41.17;95746.91;10437121;28;2189;-82
2021/07/03 09:29:54;;;;;;;;;;;24.10;99.40;;;23.60;41.08;95736.25;10417279;28;2109;-84
2021/07/03 09:34:56;;;;;;;;;;;24.10;99.10;;;23.65;42.84;95739.53;10408748;28;2106;-85
2021/07/03 09:39:59;;;;;;;;;;;24.30;99.90;;;22.98;42.07;95744.22;10436857;28;2534;-84
2021/07/03 09:45:02;;;;;;;;;;;24.10;98.00;;;23.24;42.60;95734.66;10428373;28;1975;-83
2021/07/03 09:50:05;;;;;;;;;;;24.00;98.80;;;23.13;41.91;95735.19;10420034;28;1713;-83
2021/07/03 09:55:08;;;;;;;;;;;23.90;98.30;;;23.85;41.00;95734.09;10419072;28;1894;-83
2021/07/03 10:00:11;;;;;;;;;;;24.30;98.00;;;23.95;39.72;95717.06;10421019;28;1826;-84
2021/07/03 10:05:21;;;;;;;;;;;24.60;95.10;;;23.46;41.46;95723.00;10425790;28;1954;-83
2021/07/03 10:10:24;;;;;;;;;;;24.50;95.20;;;23.95;39.45;95714.31;10426906;28;1869;-83
2021/07/03 10:15:27;;;;;;;;;;;24.70;94.60;;;23.24;40.72;95721.75;10444299;28;1889;-81
2021/07/03 10:20:29;;;;;;;;;;;24.30;93.80;;;23.57;38.98;95718.56;10438763;28;1928;-80
2021/07/03 10:25:32;;;;;;;;;;;24.30;93.10;;;22.86;40.35;95717.69;10427696;28;1962;-83
2021/07/03 10:30:35;;;;;;;;;;;24.10;91.80;;;23.12;39.19;95706.19;10420242;28;1859;-82
2021/07/03 10:35:38;;;;;;;;;;;24.00;91.60;;;23.14;38.13;95703.88;10435400;28;1991;-83
2021/07/03 10:40:41;;;;;;;;;;;24.10;89.70;;;24.08;37.56;95691.03;10433816;28;2114;-84
2021/07/03 10:45:44;;;;;;;;;;;24.60;90.60;;;25.24;35.58;95685.25;10403862;28;1910;-82
2021/07/03 10:50:46;;;;;;;;;;;26.20;88.10;;;25.47;31.81;95684.41;10415777;28;2063;-83
2021/07/03 10:55:49;;;;;;;;;;;27.50;80.30;;;25.27;29.90;95679.03;10419954;28;1965;-83
2021/07/03 11:00:52;;;;;;;;;;;27.80;73.80;;;25.30;29.91;95681.03;10428794;28;2154;-84
2021/07/03 11:05:56;;;;;;;;;;;27.50;72.70;;;26.24;28.31;95664.56;10425108;28;2117;-84
2021/07/03 11:11:00;;;;;;;;;;;28.00;71.10;;;26.94;27.24;95658.16;10423486;28;2126;-84
2021/07/03 11:16:03;;;;;;;;;;;29.30;69.20;;;26.45;29.32;95663.22;10422088;28;2118;-83
2021/07/03 11:21:06;;;;;;;;;;;29.50;67.90;;;26.26;30.36;95662.22;10439026;28;2055;-84
2021/07/03 11:26:09;;;;;;;;;;;29.00;67.90;;;25.27;31.16;95664.47;10432758;28;2100;-82
2021/07/03 11:31:12;;;;;;;;;;;28.40;68.10;;;25.21;31.57;95658.50;10425372;28;1553;-82
2021/07/03 11:36:16;;;;;;;;;;;27.90;68.30;;;25.23;31.23;95649.88;10408961;28;1959;-82
2021/07/03 11:41:18;;;;;;;;;;;27.50;68.20;;;24.88;31.54;95636.34;10431996;28;1446;-82
2021/07/03 11:46:21;;;;;;;;;;;26.90;68.00;;;24.87;33.53;95632.78;10423952;28;2050;-84
2021/07/03 11:51:24;;;;;;;;;;;26.30;70.80;;;24.71;35.67;95641.19;10436203;28;2119;-84
2021/07/03 11:56:27;;;;;;;;;;;26.00;74.10;;;24.42;35.18;95628.13;10428612;28;2024;-83
2021/07/03 12:01:30;;;;;;;;;;;25.70;73.50;;;24.27;36.63;95633.34;10434580;28;2098;-84
2021/07/03 12:06:33;;;;;;;;;;;25.50;75.20;;;24.42;35.64;95628.91;10432479;28;2088;-84
2021/07/03 12:11:40;;;;;;;;;;;25.60;74.60;;;24.02;36.03;95629.34;10420005;28;2172;-83
2021/07/03 12:16:43;;;;;;;;;;;25.40;74.70;;;24.08;36.73;95627.09;10426882;28;1975;-84
2021/07/03 12:21:46;;;;;;;;;;;25.20;75.60;;;23.97;35.93;95613.16;10423787;28;1958;-85
2021/07/03 12:26:49;;;;;;;;;;;25.30;74.60;;;24.06;35.59;95611.00;10432039;28;2064;-83
2021/07/03 12:31:52;;;;;;;;;;;25.20;74.60;;;24.41;34.94;95621.84;10437675;28;2012;-80
2021/07/03 12:36:55;;;;;;;;;;;25.50;74.30;;;24.39;35.50;95612.38;10441442;28;2113;-82
2021/07/03 12:42:01;;;;;;;;;;;25.60;73.90;;;23.88;36.22;95599.66;10431470;28;2107;-83
2021/07/03 12:47:04;;;;;;;;;;;25.20;74.10;;;24.20;36.01;95592.00;10427574;28;2059;-83
2021/07/03 12:52:07;;;;;;;;;;;25.40;74.40;;;24.66;36.52;95589.28;10435098;28;1909;-83
2021/07/03 12:57:10;;;;;;;;;;;25.60;76.00;;;25.04;33.48;95601.25;10430841;28;1953;-84
2021/07/03 13:02:13;;;;;;;;;;;26.00;72.70;;;24.14;33.89;95598.19;10435539;28;1929;-84
2021/07/03 13:07:16;;;;;;;;;;;25.50;70.90;;;25.06;33.15;95585.97;10426741;28;1898;-83
2021/07/03 13:12:19;;;;;;;;;;;25.70;71.70;;;24.88;33.40;95589.63;10422625;28;2012;-82
2021/07/03 13:17:22;;;;;;;;;;;25.90;71.00;;;24.70;33.63;95590.13;10408979;28;1879;-84
2021/07/03 13:22:25;;;;;;;;;;;26.00;71.20;;;24.70;33.42;95578.34;10436404;28;1861;-82
2021/07/03 13:27:27;;;;;;;;;;;25.80;70.60;;;25.08;33.97;95577.38;10409099;28;1950;-83
2021/07/03 13:32:30;;;;;;;;;;;26.00;72.20;;;25.00;33.35;95576.44;10415269;28;2086;-82
2021/07/03 13:37:33;;;;;;;;;;;26.10;70.40;;;25.09;32.35;95556.16;10404795;28;1861;-82
2021/07/03 13:42:36;;;;;;;;;;;26.10;69.70;;;24.97;32.52;95559.88;10404945;28;1901;-82
2021/07/03 13:47:40;;;;;;;;;;;26.10;69.70;;;25.05;33.64;95556.88;10387125;28;2057;-82
2021/07/03 13:52:42;;;;;;;;;;;26.00;70.60;;;25.25;32.38;95543.78;10397381;28;1737;-82
2021/07/03 13:57:46;;;;;;;;;;;26.10;69.70;;;24.90;32.71;95554.28;10410626;28;1984;-82
2021/07/03 14:02:49;;;;;;;;;;;26.00;69.70;;;25.31;31.89;95536.78;10409687;28;2118;-82
2021/07/03 14:07:51;;;;;;;;;;;26.30;69.20;;;24.70;32.38;95540.66;10415451;28;2075;-83
2021/07/03 14:12:54;;;;;;;;;;;26.10;68.30;;;25.40;32.58;95530.22;10411533;28;1747;-81
2021/07/03 14:18:02;;;;;;;;;;;26.10;69.90;;;25.36;32.61;95521.13;10420836;28;1913;-83
2021/07/03 14:23:05;;;;;;;;;;;26.30;69.30;;;25.50;31.48;95521.28;10421261;28;1960;-84
2021/07/03 14:28:08;;;;;;;;;;;26.40;68.30;;;25.90;32.48;95522.56;10426563;28;2082;-85
2021/07/03 14:33:11;;;;;;;;;;;26.70;69.30;;;25.64;32.70;95515.97;10440444;28;1989;-82
2021/07/03 14:38:14;;;;;;;;;;;26.70;68.60;;;25.73;32.27;95501.94;10427603;28;1749;-84
2021/07/03 14:43:17;;;;;;;;;;;26.60;68.30;;;26.19;30.58;95510.63;10420995;28;2049;-83
2021/07/03 14:48:20;;;;;;;;;;;26.90;66.70;;;26.37;30.29;95499.75;10440467;28;1956;-84
2021/07/03 14:53:23;;;;;;;;;;;27.20;66.80;;;26.36;30.70;95507.22;10437458;28;1947;-83
2021/07/03 14:58:25;;;;;;;;;;;27.30;66.60;;;25.72;31.98;95495.59;10450514;28;1528;-82
2021/07/03 15:03:28;;;;;;;;;;;27.00;67.20;;;25.81;31.94;95496.09;10428681;28;1833;-84
2021/07/03 15:08:34;;;;;;;;;;;27.00;67.30;;;25.40;33.11;95494.47;10438398;28;2015;-83
2021/07/03 15:13:42;;;;;;;;;;;26.80;67.30;;;25.69;32.26;95493.59;10426543;28;1881;-83
2021/07/03 15:18:46;;;;;;;;;;;26.60;67.50;;;25.68;31.92;95492.00;10430484;28;1779;-83
2021/07/03 15:23:49;;;;;;;;;;;26.70;67.00;;;25.60;32.27;95487.59;10432881;28;1898;-82
2021/07/03 15:28:54;;;;;;;;;;;26.50;67.50;;;25.42;33.58;95487.41;10434386;28;1957;-82
2021/07/03 15:33:59;;;;;;;;;;;26.40;68.70;;;25.80;33.13;95485.47;10427729;28;1869;-82
2021/07/03 15:39:02;;;;;;;;;;;26.40;69.10;;;25.19;34.01;95482.03;10419066;28;2045;-82
2021/07/03 15:44:05;;;;;;;;;;;26.40;69.00;;;25.31;33.37;95481.78;10444538;28;2020;-81
2021/07/03 15:49:08;;;;;;;;;;;26.10;69.10;;;25.83;32.45;95484.69;10439076;28;2147;-82
2021/07/03 15:54:11;;;;;;;;;;;26.20;69.10;;;26.84;30.86;95474.09;10438220;28;1858;-83
2021/07/03 15:59:14;;;;;;;;;;;27.00;68.40;;;26.47;31.83;95470.72;10430157;28;2030;-81
2021/07/03 16:04:17;;;;;;;;;;;27.30;68.10;;;26.30;31.73;95483.16;10436633;28;2109;-81
2021/07/03 16:09:20;;;;;;;;;;;27.40;66.90;;;25.33;33.12;95476.72;10441716;28;2058;-83
2021/07/03 16:14:23;;;;;;;;;;;26.70;67.10;;;25.34;33.61;95477.50;10431094;28;1917;-82
2021/07/03 16:19:26;;;;;;;;;;;26.30;68.50;;;25.09;34.93;95487.41;10422874;28;1855;-83
2021/07/03 16:24:29;;;;;;;;;;;26.00;70.00;;;24.60;35.28;95475.34;10435844;28;2102;-82
2021/07/03 16:29:32;;;;;;;;;;;25.70;69.80;;;24.42;35.83;95480.56;10417755;28;2226;-83
2021/07/03 16:34:38;;;;;;;;;;;25.30;70.80;;;24.60;35.59;95477.28;10442547;28;2070;-83
2021/07/03 16:39:41;;;;;;;;;;;25.40;70.90;;;24.77;35.31;95479.50;10443884;28;2032;-83
2021/07/03 16:44:44;;;;;;;;;;;25.50;70.50;;;24.84;35.43;95476.06;10441828;28;2116;-82
2021/07/03 16:49:47;;;;;;;;;;;25.60;70.80;;;24.61;35.68;95474.16;10436908;28;2049;-83
2021/07/03 16:54:49;;;;;;;;;;;25.40;71.20;;;24.28;36.16;95470.13;10434846;28;2157;-80
2021/07/03 16:59:52;;;;;;;;;;;25.30;71.10;;;24.31;36.18;95484.28;10443772;28;1897;-83
2021/07/03 17:04:55;;;;;;;;;;;25.20;71.70;;;24.53;37.45;95492.50;10427985;28;1849;-82
2021/07/03 17:09:58;;;;;;;;;;;25.20;73.00;;;24.53;38.27;95486.22;10441184;28;2036;-82
2021/07/03 17:15:00;;;;;;;;;;;25.30;74.40;;;24.32;39.23;95485.88;10438236;28;2098;-82
2021/07/03 17:20:03;;;;;;;;;;;25.20;75.00;;;23.66;40.28;95488.69;10431402;28;2095;-82
2021/07/03 17:25:06;;;;;;;;;;;24.80;75.70;;;23.95;40.30;95486.44;10427502;28;2214;-82
2021/07/03 17:30:09;;;;;;;;;;;24.70;76.70;;;23.60;41.23;95490.13;10419179;28;2074;-81
2021/07/03 17:35:11;;;;;;;;;;;24.60;77.00;;;23.42;41.45;95483.53;10427158;28;2154;-81
2021/07/03 17:40:15;;;;;;;;;;;24.30;77.50;;;23.20;41.90;95490.53;10402915;28;2094;-81
2021/07/03 17:45:17;;;;;;;;;;;24.20;78.00;;;23.03;42.30;95480.78;10432202;28;2107;-81
2021/07/03 17:50:20;;;;;;;;;;;24.10;78.60;;;22.59;43.18;95481.00;10418276;28;1915;-80
2021/07/03 17:55:23;;;;;;;;;;;23.80;79.00;;;22.37;43.96;95489.88;10420129;28;2035;-81
2021/07/03 18:00:27;;;;;;;;;;;23.50;80.00;;;22.31;44.13;95489.34;10421432;28;2004;-81
2021/07/03 18:05:30;;;;;;;;;;;23.30;80.50;;;22.22;44.58;95494.22;10431471;28;1941;-82
2021/07/03 18:10:33;;;;;;;;;;;23.20;81.10;;;22.05;44.83;95484.41;10435227;28;2039;-82
2021/07/03 18:15:36;;;;;;;;;;;23.00;81.40;;;21.95;45.60;95482.22;10413643;28;1984;-81
2021/07/03 18:20:39;;;;;;;;;;;22.90;82.30;;;21.82;46.14;95481.50;10435058;28;2044;-82
2021/07/03 18:25:54;;;;;;;;;;;22.80;82.80;;;21.75;45.78;95480.50;10424072;28;3321;-84
2021/07/03 18:30:57;;;;;;;;;;;22.70;82.80;;;21.77;45.87;95473.56;10432652;28;2330;-83
2021/07/03 18:36:00;;;;;;;;;;;22.70;83.10;;;21.64;46.15;95474.00;10432071;28;1125;-81
2021/07/03 18:41:03;;;;;;;;;;;22.60;83.20;;;21.55;45.86;95472.19;10429884;28;2153;-81
2021/07/03 18:46:06;;;;;;;;;;;22.60;83.10;;;21.41;46.64;95471.03;10439377;28;1188;-81
2021/07/03 18:51:09;;;;;;;;;;;22.40;83.60;;;21.30;47.11;95478.94;10434064;28;1960;-81
2021/07/03 18:56:12;;;;;;;;;;;22.30;84.20;;;21.23;47.05;95481.44;10449943;28;1835;-82
2021/07/03 19:01:14;;;;;;;;;;;22.20;84.20;;;21.15;47.92;95475.00;10449495;28;2241;-83
2021/07/03 19:06:17;;;;;;;;;;;22.10;84.70;;;21.05;47.64;95480.94;10451039;28;1884;-84
2021/07/03 19:11:23;;;;;;;;;;;22.00;84.90;;;21.09;47.73;95479.13;10432543;28;2079;-82
2021/07/03 19:16:26;;;;;;;;;;;22.00;85.30;;;21.02;47.71;95485.19;10440344;28;2183;-82
2021/07/03 19:21:29;;;;;;;;;;;21.90;85.30;;;21.02;48.62;95485.19;10429019;28;2120;-82
2021/07/03 19:26:32;;;;;;;;;;;21.90;86.10;;;20.93;48.34;95492.75;10421662;28;1891;-82
2021/07/03 19:31:36;;;;;;;;;;;21.90;86.00;;;20.83;48.78;95489.69;10437804;28;1545;-82
2021/07/03 19:36:42;;;;;;;;;;;21.80;86.50;;;20.82;49.83;95499.81;10419219;28;1288;-82
2021/07/03 19:41:48;;;;;;;;;;;21.70;87.50;;;20.82;51.17;95499.81;10434196;28;1461;-82
2021/07/03 19:46:59;;;;;;;;;;;21.70;88.70;;;20.77;49.92;95502.78;10411521;28;1957;-82
2021/07/03 19:52:08;;;;;;;;;;;21.70;88.10;;;20.77;50.43;95506.31;10410639;28;4186;-82
2021/07/03 19:57:27;;;;;;;;;;;;;;;;;;;;;
2021/07/03 20:02:42;;;;;;;;;;;21.70;88.70;;;20.77;50.47;95508.25;10405818;28;1335;-82
2021/07/03 20:08:02;;;;;;;;;;;21.70;88.80;;;20.81;50.78;95522.81;10425096;28;1977;-82
2021/07/03 20:13:05;;;;;;;;;;;21.70;89.20;;;20.88;49.95;95524.97;10409659;28;1491;-82
2021/07/03 20:18:10;;;;;;;;;;;21.70;89.20;;;20.99;50.82;95543.28;10418989;28;1465;-83
2021/07/03 20:23:18;;;;;;;;;;;21.80;90.10;;;20.91;53.16;95563.31;10432038;28;1273;-82
2021/07/03 20:28:21;;;;;;;;;;;21.80;92.10;;;20.45;57.96;95568.13;10445049;28;1967;-82
2021/07/03 20:33:24;;;;;;;;;;;21.60;96.30;;;20.00;60.13;95573.66;10452328;28;1687;-82
2021/07/03 20:38:27;;;;;;;;;;;21.10;99.10;;;19.76;61.97;95577.09;10436980;28;1097;-83
2021/07/03 20:43:30;;;;;;;;;;;20.80;99.90;;;19.40;64.35;95578.56;10426694;28;1591;-82
2021/07/03 20:48:33;;;;;;;;;;;20.50;99.90;;;19.33;65.13;95572.81;10440342;28;1910;-84
2021/07/03 20:53:36;;;;;;;;;;;20.30;99.90;;;19.00;67.70;95585.59;10436397;28;1401;-82
2021/07/03 20:58:38;;;;;;;;;;;20.10;99.90;;;18.90;68.32;95590.34;10414182;28;1325;-83
2021/07/03 21:03:41;;;;;;;;;;;19.90;99.90;;;18.45;71.56;95589.25;10431802;28;1290;-82
2021/07/03 21:08:44;;;;;;;;;;;19.60;99.90;;;18.23;73.04;95585.69;10406341;28;1886;-84
2021/07/03 21:13:47;;;;;;;;;;;19.40;99.90;;;18.19;73.43;95586.66;10434972;28;1344;-81
2021/07/03 21:18:50;;;;;;;;;;;19.20;99.90;;;18.06;74.95;95585.75;10435611;28;1654;-83
2021/07/03 21:23:53;;;;;;;;;;;19.10;99.90;;;18.01;76.72;95583.25;10429547;28;1272;-83
2021/07/03 21:28:56;;;;;;;;;;;19.00;99.90;;;17.83;77.65;95577.84;10437818;28;2038;-83
2021/07/03 21:33:58;;;;;;;;;;;18.90;99.90;;;17.63;80.04;95578.50;10431101;28;1603;-82
2021/07/03 21:39:01;;;;;;;;;;;18.70;99.90;;;17.57;81.22;95574.38;10426075;28;1302;-83
2021/07/03 21:44:04;;;;;;;;;;;18.60;99.90;;;17.53;81.67;95576.13;10431944;28;1489;-80
2021/07/03 21:49:07;;;;;;;;;;;18.50;99.90;;;17.47;83.07;95580.91;10438217;28;1953;-83
2021/07/03 21:54:10;;;;;;;;;;;18.40;99.90;;;17.31;83.95;95581.75;10439874;28;1581;-83
2021/07/03 21:59:15;;;;;;;;;;;18.40;99.90;;;17.27;84.67;95585.09;10431343;28;1243;-82
2021/07/03 22:04:18;;;;;;;;;;;18.20;99.90;;;17.02;88.60;95591.31;10438722;28;1876;-83
2021/07/03 22:09:26;;;;;;;;;;;18.10;99.90;;;17.05;88.86;95579.03;10429336;28;1891;-81
2021/07/03 22:14:29;;;;;;;;;;;18.00;99.90;;;16.93;90.89;95569.63;10431821;28;1257;-83
2021/07/03 22:19:32;;;;;;;;;;;18.00;99.90;;;16.97;90.03;95569.75;10436547;28;1518;-82
2021/07/03 22:24:34;;;;;;;;;;;17.90;99.90;;;16.98;91.16;95576.78;10428821;28;1371;-83
2021/07/03 22:29:37;;;;;;;;;;;17.80;99.90;;;16.81;91.81;95577.59;10425811;28;1895;-80
2021/07/03 22:34:40;;;;;;;;;;;17.80;99.90;;;16.84;92.70;95578.84;10416843;28;1686;-81
2021/07/03 22:39:43;;;;;;;;;;;17.80;99.90;;;16.86;92.64;95569.28;10433818;28;1637;-82
2021/07/03 22:44:46;;;;;;;;;;;17.80;99.90;;;17.12;89.39;95569.28;10403303;28;1316;-83
2021/07/03 22:49:49;;;;;;;;;;;17.90;99.90;;;17.18;89.10;95567.22;10418677;28;1956;-82
2021/07/03 22:54:52;;;;;;;;;;;18.00;99.90;;;17.25;89.20;95565.63;10415747;28;1567;-82
2021/07/03 22:59:54;;;;;;;;;;;18.10;99.90;;;17.21;89.75;95572.78;10427528;28;1345;-83
2021/07/03 23:04:57;;;;;;;;;;;18.10;99.90;;;17.23;90.93;95564.31;10416634;28;1345;-82
2021/07/03 23:10:00;;;;;;;;;;;18.10;99.90;;;17.08;93.01;95583.81;10425961;28;1958;-83
2021/07/03 23:15:03;;;;;;;;;;;18.00;99.90;;;17.07;93.70;95572.16;10441577;28;1541;-80
2021/07/03 23:20:06;;;;;;;;;;;18.00;99.90;;;17.02;92.92;95581.25;10412855;28;1256;-83